Time;durP1;ratioP1;P1;durP2;ratioP2;P2;SDS_P1;SDS_P2;PMS_P1;PMS_P2;Temp;Humidity;BMP_temperature;BMP_pressure;BME280_temperature;BME280_humidity;BME280_pressure;Samples;Min_cycle;Max_cycle;Signal;HPM_P1;HPM_P2
2022/08/10 00:01:39;;;;;;;9.02;5.32;;;16.50;99.90;;;;;;5060472;28;20069;-59
2022/08/10 00:04:05;;;;;;;9.00;5.30;;;16.50;99.90;;;;;;5058879;28;20037;-59
2022/08/10 00:06:31;;;;;;;6.90;4.78;;;16.50;99.90;;;;;;5060139;28;20071;-58
2022/08/10 00:08:57;;;;;;;8.05;5.00;;;16.40;99.90;;;;;;5059643;28;20045;-58
2022/08/10 00:11:23;;;;;;;12.30;6.38;;;16.40;99.90;;;;;;5059132;28;20037;-58
2022/08/10 00:13:49;;;;;;;8.75;5.30;;;16.30;99.90;;;;;;5060137;28;20029;-58
2022/08/10 00:16:15;;;;;;;7.85;4.90;;;16.30;99.90;;;;;;5058162;28;20060;-56
2022/08/10 00:18:41;;;;;;;9.07;5.43;;;16.30;99.90;;;;;;5059849;28;20048;-57
2022/08/10 00:21:07;;;;;;;8.32;5.10;;;16.30;99.90;;;;;;5058345;28;20071;-57
2022/08/10 00:23:35;;;;;;;9.07;5.60;;;16.30;99.90;;;;;;5059619;28;20051;-57
2022/08/10 00:26:02;;;;;;;8.20;5.50;;;16.30;99.90;;;;;;5057893;28;20052;-58
2022/08/10 00:28:27;;;;;;;9.55;5.57;;;16.30;99.90;;;;;;5058980;28;20044;-58
2022/08/10 00:30:53;;;;;;;8.98;5.70;;;16.20;99.90;;;;;;5045682;28;20085;-58
2022/08/10 00:33:19;;;;;;;8.88;5.30;;;16.20;99.90;;;;;;5038346;28;20101;-57
2022/08/10 00:35:45;;;;;;;7.47;5.30;;;16.20;99.90;;;;;;5040054;28;20083;-58
2022/08/10 00:38:11;;;;;;;9.85;5.57;;;16.10;99.90;;;;;;5046826;28;20035;-58
2022/08/10 00:40:37;;;;;;;8.27;5.68;;;16.00;99.90;;;;;;5059321;28;20128;-57
2022/08/10 00:43:03;;;;;;;9.95;7.43;;;16.10;99.90;;;;;;5058549;28;20117;-57
2022/08/10 00:45:29;;;;;;;9.25;6.53;;;16.10;99.90;;;;;;5059103;28;20057;-57
2022/08/10 00:47:54;;;;;;;10.82;6.80;;;16.00;99.90;;;;;;5059645;28;20033;-59
2022/08/10 00:50:20;;;;;;;9.98;7.07;;;16.00;99.90;;;;;;5058101;28;20049;-59
2022/08/10 00:52:46;;;;;;;8.90;6.03;;;16.10;99.90;;;;;;5059398;28;20037;-58
2022/08/10 00:55:12;;;;;;;10.52;6.97;;;16.00;99.90;;;;;;5057953;28;20044;-58
2022/08/10 00:57:39;;;;;;;9.40;6.43;;;16.00;99.90;;;;;;5059425;28;20502;-58
2022/08/10 01:00:06;;;;;;;8.85;6.30;;;16.10;99.90;;;;;;5058436;28;20099;-59
2022/08/10 01:02:32;;;;;;;9.02;5.88;;;16.00;99.90;;;;;;5058903;28;20049;-58
2022/08/10 01:05:05;;;;;;;9.27;6.05;;;16.10;99.90;;;;;;5059229;28;20103;-58
2022/08/10 01:07:36;;;;;;;10.80;6.97;;;16.10;99.90;;;;;;5057835;28;20056;-58
2022/08/10 01:10:26;;;;;;;11.10;7.00;;;16.10;99.90;;;;;;5059513;28;20785;-58
2022/08/10 01:13:20;;;;;;;10.75;7.15;;;16.10;99.90;;;;;;5058180;28;20052;-58
2022/08/10 01:15:46;;;;;;;8.40;5.90;;;16.00;99.90;;;;;;5034688;28;20613;-58
2022/08/10 01:18:13;;;;;;;8.48;5.47;;;16.00;99.90;;;;;;5059336;28;20052;-58
2022/08/10 01:20:57;;;;;;;8.57;6.10;;;16.00;99.90;;;;;;5057875;28;20069;-58
2022/08/10 01:23:52;;;;;;;8.75;5.43;;;16.00;99.90;;;;;;5057808;28;20129;-58
2022/08/10 01:26:33;;;;;;;8.95;5.60;;;16.00;99.90;;;;;;5058959;28;20100;-58
2022/08/10 01:29:25;;;;;;;8.48;5.00;;;16.00;99.90;;;;;;5057537;28;20144;-58
2022/08/10 01:31:56;;;;;;;9.15;5.13;;;15.90;99.90;;;;;;5043300;28;20041;-59
2022/08/10 01:34:26;;;;;;;10.02;6.68;;;15.90;99.90;;;;;;5042055;28;20037;-59
2022/08/10 01:36:58;;;;;;;10.48;6.15;;;16.00;99.90;;;;;;5042642;28;20052;-58
2022/08/10 01:39:33;;;;;;;12.82;7.38;;;16.00;99.90;;;;;;5061706;28;20045;-58
2022/08/10 01:42:01;;;;;;;11.98;7.97;;;16.00;99.90;;;;;;5061397;28;20546;-59
2022/08/10 01:44:38;;;;;;;10.85;7.53;;;16.00;99.90;;;;;;5053937;28;20120;-58
2022/08/10 01:50:03;;;;;;;12.80;8.07;;;16.10;99.90;;;;;;5061618;28;20117;-58
2022/08/10 01:52:30;;;;;;;13.55;7.90;;;16.10;99.90;;;;;;5063129;28;20033;-58
2022/08/10 01:54:57;;;;;;;13.68;8.18;;;16.10;99.90;;;;;;5061291;28;20207;-58
2022/08/10 01:57:26;;;;;;;15.35;8.98;;;16.10;99.90;;;;;;5062732;28;20108;-58
2022/08/10 01:59:55;;;;;;;12.55;7.93;;;16.10;99.90;;;;;;5061323;28;20214;-59
2022/08/10 02:02:21;;;;;;;12.90;8.38;;;16.10;99.90;;;;;;5062220;28;20041;-58
2022/08/10 02:04:48;;;;;;;11.88;8.63;;;16.10;99.90;;;;;;5062204;28;20056;-58
2022/08/10 02:07:18;;;;;;;12.02;8.48;;;16.00;99.90;;;;;;5061482;28;20045;-58
2022/08/10 02:09:51;;;;;;;11.75;8.30;;;16.10;99.90;;;;;;5078251;28;20056;-58
2022/08/10 02:12:23;;;;;;;12.60;7.75;;;16.10;99.90;;;;;;5060833;28;20037;-58
2022/08/10 02:14:56;;;;;;;12.60;8.75;;;16.10;99.90;;;;;;5061731;28;20053;-58
2022/08/10 02:17:30;;;;;;;10.68;7.78;;;16.10;99.90;;;;;;5061453;28;20409;-59
2022/08/10 02:19:59;;;;;;;14.48;8.65;;;16.10;99.90;;;;;;5059953;28;20080;-58
2022/08/10 02:22:26;;;;;;;13.27;8.70;;;16.00;99.90;;;;;;5062435;28;20045;-58
2022/08/10 02:24:53;;;;;;;10.95;7.28;;;16.00;99.90;;;;;;5060370;28;20037;-58
2022/08/10 02:27:22;;;;;;;12.23;8.45;;;16.00;99.90;;;;;;5062077;28;20055;-58
2022/08/10 02:29:50;;;;;;;13.90;8.82;;;16.00;99.90;;;;;;5054929;28;20049;-57
2022/08/10 02:32:17;;;;;;;12.35;8.68;;;16.00;99.90;;;;;;5042037;28;20451;-59
2022/08/10 02:34:44;;;;;;;13.25;8.20;;;16.00;99.90;;;;;;5041711;28;20042;-58
2022/08/10 02:37:11;;;;;;;15.65;8.07;;;16.00;99.90;;;;;;5040936;28;20048;-58
2022/08/10 02:39:37;;;;;;;12.23;8.13;;;16.00;99.90;;;;;;5062278;28;20105;-59
2022/08/10 02:42:13;;;;;;;11.93;7.57;;;16.00;99.90;;;;;;5060148;28;20048;-59
2022/08/10 02:45:03;;;;;;;8.85;5.93;;;16.00;99.90;;;;;;5061899;28;20045;-58
2022/08/10 02:47:46;;;;;;;9.30;6.00;;;15.80;99.90;;;;;;5061189;28;20083;-58
2022/08/10 02:50:20;;;;;;;9.70;5.68;;;15.60;99.90;;;;;;5060558;28;20044;-58
2022/08/10 02:52:52;;;;;;;8.35;5.15;;;15.50;99.90;;;;;;5061868;28;20118;-58
2022/08/10 02:55:30;;;;;;;;;;;15.50;99.90;;;;;;5061039;28;20045;-58
2022/08/10 02:58:01;;;;;;;7.90;4.90;;;15.60;99.90;;;;;;5061442;28;19925;-58
2022/08/10 03:00:27;;;;;;;11.40;4.55;;;15.60;99.90;;;;;;5061031;28;20045;-56
2022/08/10 03:02:55;;;;;;;9.52;6.60;;;15.50;99.90;;;;;;5060443;28;20065;-58
2022/08/10 03:05:21;;;;;;;10.95;7.20;;;15.50;99.90;;;;;;5061793;28;20891;-58
2022/08/10 03:07:59;;;;;;;9.93;7.43;;;15.60;99.90;;;;;;5059769;28;20037;-58
2022/08/10 03:10:31;;;;;;;11.38;7.63;;;15.60;99.90;;;;;;5060014;28;20045;-58
2022/08/10 03:13:03;;;;;;;9.48;6.50;;;15.50;99.90;;;;;;5060191;28;20070;-57
2022/08/10 03:15:30;;;;;;;10.75;7.35;;;15.50;99.90;;;;;;5060434;28;20057;-60
2022/08/10 03:17:57;;;;;;;10.82;7.78;;;15.50;99.90;;;;;;5061427;28;20037;-58
2022/08/10 03:20:24;;;;;;;12.25;8.50;;;15.60;99.90;;;;;;5058267;28;20053;-58
2022/08/10 03:22:51;;;;;;;11.15;7.43;;;15.50;99.90;;;;;;5061030;28;20481;-58
2022/08/10 03:25:20;;;;;;;12.55;8.52;;;15.50;99.90;;;;;;5059588;28;20056;-59
2022/08/10 03:27:48;;;;;;;15.43;8.77;;;15.60;99.90;;;;;;5060832;28;20095;-58
2022/08/10 03:30:14;;;;;;;13.32;8.60;;;15.70;99.90;;;;;;5051114;28;20041;-58
2022/08/10 03:32:42;;;;;;;12.48;8.65;;;15.60;99.90;;;;;;5040280;28;20049;-58
2022/08/10 03:35:08;;;;;;;9.23;6.20;;;15.60;99.90;;;;;;5041402;28;20535;-58
2022/08/10 03:37:35;;;;;;;10.10;6.57;;;15.60;99.90;;;;;;5042778;28;20037;-57
2022/08/10 03:40:00;;;;;;;9.75;6.40;;;15.50;99.90;;;;;;5060792;28;20747;-58
2022/08/10 03:42:27;;;;;;;9.63;7.18;;;15.40;99.90;;;;;;5059300;28;20084;-58
2022/08/10 03:44:54;;;;;;;10.73;7.28;;;15.40;99.90;;;;;;5060470;28;20044;-58
2022/08/10 03:47:23;;;;;;;11.00;7.55;;;15.40;99.90;;;;;;5059833;28;20075;-58
2022/08/10 03:49:50;;;;;;;11.07;7.40;;;15.40;99.90;;;;;;5059729;28;20056;-58
2022/08/10 03:52:17;;;;;;;10.98;6.78;;;15.40;99.90;;;;;;5059722;28;20033;-58
2022/08/10 03:54:43;;;;;;;10.10;6.80;;;15.40;99.90;;;;;;5059099;28;20049;-58
2022/08/10 03:57:09;;;;;;;10.23;7.05;;;15.40;99.90;;;;;;5060767;28;20044;-58
2022/08/10 03:59:35;;;;;;;10.68;6.60;;;15.40;99.90;;;;;;5059045;28;20488;-58
2022/08/10 04:02:05;;;;;;;11.30;7.00;;;15.40;99.90;;;;;;5060333;28;20037;-58
2022/08/10 04:04:31;;;;;;;10.98;6.57;;;15.30;99.90;;;;;;5059683;28;20060;-58
2022/08/10 04:06:58;;;;;;;11.60;7.60;;;15.40;99.90;;;;;;5059351;28;20595;-59
2022/08/10 04:09:29;;;;;;;11.43;7.82;;;15.40;99.90;;;;;;5060403;28;20051;-59
2022/08/10 04:11:55;;;;;;;12.15;8.00;;;15.40;99.90;;;;;;5058775;28;20085;-58
2022/08/10 04:14:20;;;;;;;12.25;8.73;;;15.40;99.90;;;;;;5060160;28;20080;-58
2022/08/10 04:16:46;;;;;;;11.75;7.97;;;15.40;99.90;;;;;;5058906;28;20400;-58
2022/08/10 04:19:15;;;;;;;11.02;7.32;;;15.50;99.90;;;;;;5059946;28;20161;-58
2022/08/10 04:21:46;;;;;;;9.90;6.57;;;15.40;99.90;;;;;;5059361;28;20056;-58
2022/08/10 04:24:17;;;;;;;11.30;7.70;;;15.40;99.90;;;;;;5058864;28;20079;-58
2022/08/10 04:26:44;;;;;;;9.70;6.20;;;15.40;99.90;;;;;;5060429;28;20045;-59
2022/08/10 04:29:09;;;;;;;11.82;8.30;;;15.40;99.90;;;;;;5058149;28;20580;-59
2022/08/10 04:31:36;;;;;;;13.13;8.55;;;15.30;99.90;;;;;;5040091;28;20068;-59
2022/08/10 04:34:03;;;;;;;13.45;9.27;;;15.40;99.90;;;;;;5038298;28;20037;-59
2022/08/10 04:36:29;;;;;;;12.32;9.02;;;15.50;99.90;;;;;;5039676;28;20052;-59
2022/08/10 04:38:55;;;;;;;13.45;9.35;;;15.60;99.90;;;;;;5053976;28;20145;-59
2022/08/10 04:41:21;;;;;;;12.82;8.75;;;15.60;99.90;;;;;;5058839;28;20096;-59
2022/08/10 04:43:47;;;;;;;10.85;7.82;;;15.60;99.90;;;;;;5058440;28;20051;-58
2022/08/10 04:46:13;;;;;;;13.95;8.25;;;15.60;99.90;;;;;;5058145;28;20076;-59
2022/08/10 04:48:39;;;;;;;13.25;8.32;;;15.60;99.90;;;;;;5059479;28;20037;-59
2022/08/10 04:51:05;;;;;;;11.02;8.00;;;15.70;99.90;;;;;;5058020;28;20508;-59
2022/08/10 04:53:31;;;;;;;10.85;7.72;;;15.70;99.90;;;;;;5059420;28;20048;-59
2022/08/10 04:55:56;;;;;;;13.43;9.38;;;15.70;99.90;;;;;;5058934;28;20523;-59
2022/08/10 04:58:22;;;;;;;13.80;8.90;;;15.80;99.90;;;;;;5058659;28;20075;-58
2022/08/10 05:00:48;;;;;;;12.73;9.00;;;15.80;99.90;;;;;;5059727;28;20045;-58
2022/08/10 05:03:13;;;;;;;13.30;8.23;;;15.90;99.90;;;;;;5057610;28;20079;-58
2022/08/10 05:05:39;;;;;;;12.95;8.73;;;16.00;99.90;;;;;;5059700;28;20053;-58
2022/08/10 05:08:05;;;;;;;12.75;8.75;;;16.10;99.90;;;;;;5057964;28;20037;-58
2022/08/10 05:10:30;;;;;;;12.90;9.48;;;16.10;99.90;;;;;;5059119;28;20033;-58
2022/08/10 05:12:56;;;;;;;15.88;9.30;;;16.10;99.90;;;;;;5058207;28;20102;-58
2022/08/10 05:15:23;;;;;;;11.93;8.80;;;16.30;99.90;;;;;;5058359;28;20056;-58
2022/08/10 05:17:49;;;;;;;14.80;10.00;;;16.30;99.90;;;;;;5059123;28;20060;-58
2022/08/10 05:20:15;;;;;;;15.63;9.27;;;16.40;99.90;;;;;;5057637;28;20412;-58
2022/08/10 05:22:43;;;;;;;12.43;8.50;;;16.50;99.90;;;;;;5059247;28;20435;-58
2022/08/10 05:25:12;;;;;;;15.15;10.05;;;16.50;99.90;;;;;;5057747;28;20037;-59
2022/08/10 05:27:38;;;;;;;13.13;8.70;;;16.50;99.90;;;;;;5058941;28;20056;-58
2022/08/10 05:30:06;;;;;;;14.63;8.98;;;16.60;99.90;;;;;;5050594;28;20045;-58
2022/08/10 05:32:33;;;;;;;13.32;8.80;;;16.70;99.90;;;;;;5038323;28;20077;-58
2022/08/10 05:34:58;;;;;;;13.98;8.98;;;16.70;99.90;;;;;;5039561;28;20531;-58
2022/08/10 05:37:24;;;;;;;14.07;9.30;;;16.80;99.90;;;;;;5044380;28;20037;-58
2022/08/10 05:39:52;;;;;;;12.30;8.43;;;16.90;99.90;;;;;;5047014;28;20042;-58
2022/08/10 05:42:20;;;;;;;11.68;8.68;;;16.90;99.90;;;;;;5042039;28;20041;-58
2022/08/10 05:44:46;;;;;;;14.02;9.48;;;17.00;99.90;;;;;;5038707;28;20075;-59
2022/08/10 05:47:11;;;;;;;16.50;8.80;;;17.10;99.90;;;;;;5038167;28;20073;-58
2022/08/10 05:49:37;;;;;;;15.00;8.85;;;17.10;99.90;;;;;;5034001;28;20067;-58
2022/08/10 05:52:03;;;;;;;13.73;9.10;;;17.20;99.90;;;;;;5035598;28;20049;-58
2022/08/10 05:54:29;;;;;;;11.75;8.70;;;17.20;99.90;;;;;;5036289;28;20041;-58
2022/08/10 05:56:55;;;;;;;13.90;8.48;;;17.20;99.90;;;;;;5044196;28;20042;-58
2022/08/10 05:59:22;;;;;;;13.45;8.77;;;17.30;99.90;;;;;;5043965;28;20041;-58
2022/08/10 06:01:51;;;;;;;12.10;8.85;;;17.40;99.90;;;;;;5046155;28;20033;-58
2022/08/10 06:04:27;;;;;;;14.05;8.75;;;17.50;99.90;;;;;;5045329;28;20501;-58
2022/08/10 06:06:54;;;;;;;15.35;8.77;;;17.60;99.90;;;;;;5048284;28;20045;-58
2022/08/10 06:09:22;;;;;;;12.43;8.35;;;17.70;99.90;;;;;;5071059;28;20079;-58
2022/08/10 06:11:50;;;;;;;15.43;9.15;;;17.80;99.90;;;;;;5053663;28;20454;-60
2022/08/10 06:17:02;;;;;;;16.45;8.43;;;18.00;99.90;;;;;;5057438;28;20106;-59
2022/08/10 06:19:29;;;;;;;13.32;8.32;;;18.10;99.90;;;;;;5058646;28;20041;-58
2022/08/10 06:21:56;;;;;;;11.85;8.05;;;18.20;99.90;;;;;;5058781;28;20045;-58
2022/08/10 06:24:26;;;;;;;14.00;8.52;;;18.30;99.90;;;;;;5057370;28;20052;-59
2022/08/10 06:26:52;;;;;;;13.48;8.15;;;18.40;99.90;;;;;;5059386;28;20049;-58
2022/08/10 06:29:19;;;;;;;16.70;8.57;;;18.50;99.90;;;;;;5056255;28;20132;-59
2022/08/10 06:31:48;;;;;;;12.15;7.55;;;18.60;99.90;;;;;;5037669;28;20526;-59
2022/08/10 06:34:17;;;;;;;11.63;7.53;;;18.70;99.90;;;;;;5043180;28;20068;-59
2022/08/10 06:36:44;;;;;;;11.93;7.55;;;18.70;99.90;;;;;;5037929;28;20042;-58
2022/08/10 06:39:11;;;;;;;13.52;8.02;;;18.80;99.90;;;;;;5053862;28;20048;-59
2022/08/10 06:41:43;;;;;;;11.50;7.28;;;18.90;99.90;;;;;;5057358;28;20041;-58
2022/08/10 06:44:14;;;;;;;12.65;7.57;;;19.00;99.90;;;;;;5058744;28;20037;-59
2022/08/10 06:46:44;;;;;;;9.60;7.35;;;19.00;99.90;;;;;;5057251;28;20048;-59
2022/08/10 06:49:12;;;;;;;11.30;6.68;;;19.10;99.90;;;;;;5058140;28;20045;-58
2022/08/10 06:51:42;;;;;;;13.63;6.90;;;19.10;99.90;;;;;;5057586;28;20040;-59
2022/08/10 06:54:11;;;;;;;10.43;6.47;;;19.10;99.90;;;;;;5056154;28;20779;-59
2022/08/10 06:56:42;;;;;;;9.75;6.72;;;19.20;99.90;;;;;;5051955;28;20056;-57
2022/08/10 06:59:11;;;;;;;;;;;19.20;99.90;;;;;;5043072;28;20041;-59
2022/08/10 07:01:40;;;;;;;11.15;6.20;;;19.30;99.90;;;;;;5051182;28;19924;-61
2022/08/10 07:04:10;;;;;;;10.48;5.90;;;19.40;99.90;;;;;;5056160;28;20041;-58
2022/08/10 07:06:44;;;;;;;11.18;5.97;;;19.40;99.90;;;;;;5057854;28;20037;-58
2022/08/10 07:09:11;;;;;;;11.70;5.80;;;19.40;99.90;;;;;;5058143;28;21150;-57
2022/08/10 07:11:38;;;;;;;11.98;5.90;;;19.50;99.90;;;;;;5056072;28;20049;-57
2022/08/10 07:14:05;;;;;;;7.72;5.32;;;19.50;99.90;;;;;;5057939;28;20717;-58
2022/08/10 07:16:33;;;;;;;10.20;5.25;;;19.60;99.90;;;;;;5056485;28;20041;-57
2022/08/10 07:19:01;;;;;;;8.35;4.72;;;19.70;99.90;;;;;;5057750;28;20049;-58
2022/08/10 07:21:30;;;;;;;9.50;5.10;;;19.80;99.90;;;;;;5057114;28;20049;-59
2022/08/10 07:23:57;;;;;;;9.27;5.30;;;19.80;99.90;;;;;;5059113;28;20044;-58
2022/08/10 07:26:25;;;;;;;7.90;4.80;;;19.80;99.90;;;;;;5059575;28;20052;-58
2022/08/10 07:28:52;;;;;;;8.13;4.90;;;20.00;99.90;;;;;;5054924;28;20035;-58
2022/08/10 07:31:20;;;;;;;8.60;4.72;;;20.10;99.90;;;;;;5048678;28;20045;-58
2022/08/10 07:33:50;;;;;;;9.18;4.75;;;20.10;99.90;;;;;;5048594;28;20043;-57
2022/08/10 07:36:20;;;;;;;7.70;4.40;;;20.20;99.90;;;;;;5046618;28;20059;-58
2022/08/10 07:38:50;;;;;;;9.13;4.20;;;20.20;99.90;;;;;;5054316;28;20060;-58
2022/08/10 07:41:18;;;;;;;6.60;3.97;;;20.30;99.90;;;;;;5050782;28;20046;-58
2022/08/10 07:43:46;;;;;;;7.95;3.90;;;20.30;99.90;;;;;;5058303;28;20493;-57
2022/08/10 07:46:14;;;;;;;8.60;3.55;;;20.50;99.90;;;;;;5057521;28;20160;-57
2022/08/10 07:48:46;;;;;;;10.40;3.83;;;20.60;99.90;;;;;;5051794;28;20405;-58
2022/08/10 07:51:12;;;;;;;8.38;4.40;;;20.70;99.90;;;;;;5046509;28;20038;-58
2022/08/10 07:53:45;;;;;;;8.73;3.40;;;20.60;99.90;;;;;;5050225;28;20045;-58
2022/08/10 07:56:12;;;;;;;8.43;3.22;;;20.80;99.90;;;;;;5048960;28;20041;-58
2022/08/10 07:58:47;;;;;;;6.40;3.50;;;20.80;99.90;;;;;;5041205;28;20571;-58
2022/08/10 08:01:14;;;;;;;6.88;3.13;;;20.90;99.90;;;;;;5040510;28;20057;-57
2022/08/10 08:03:41;;;;;;;6.75;2.95;;;20.90;99.90;;;;;;5038974;28;20037;-58
2022/08/10 08:06:07;;;;;;;6.88;3.00;;;21.00;99.90;;;;;;5040046;28;20045;-58
2022/08/10 08:08:34;;;;;;;7.80;3.33;;;21.10;99.90;;;;;;5037716;28;20133;-58
2022/08/10 08:11:01;;;;;;;7.03;3.10;;;21.10;99.90;;;;;;5039372;28;20126;-58
2022/08/10 08:13:29;;;;;;;7.50;2.90;;;21.30;99.90;;;;;;5038403;28;20057;-59
2022/08/10 08:15:57;;;;;;;8.40;2.83;;;21.30;99.90;;;;;;5036913;28;20047;-58
2022/08/10 08:18:24;;;;;;;8.93;3.55;;;21.30;99.90;;;;;;5039410;28;20049;-58
2022/08/10 08:20:50;;;;;;;8.05;2.95;;;21.30;99.90;;;;;;5036536;28;20045;-57
2022/08/10 08:23:17;;;;;;;7.65;3.17;;;21.30;99.90;;;;;;5038845;28;20041;-58
2022/08/10 08:25:45;;;;;;;10.35;3.47;;;21.50;99.90;;;;;;5039019;28;20045;-57
2022/08/10 08:28:11;;;;;;;7.13;3.58;;;21.60;99.90;;;;;;5037788;28;20045;-58
2022/08/10 08:30:39;;;;;;;6.13;2.85;;;21.60;99.90;;;;;;5052012;28;20071;-57
2022/08/10 08:33:08;;;;;;;7.07;2.90;;;21.70;99.90;;;;;;5058068;28;20041;-58
2022/08/10 08:35:34;;;;;;;4.47;2.25;;;21.70;99.90;;;;;;5059628;28;20118;-58
2022/08/10 08:38:01;;;;;;;10.63;2.67;;;21.70;99.90;;;;;;5057918;28;20120;-58
2022/08/10 08:40:33;;;;;;;6.90;2.72;;;21.80;99.90;;;;;;5058034;28;20049;-58
2022/08/10 08:43:36;;;;;;;8.18;2.75;;;21.90;99.90;;;;;;5058601;28;20914;-58
2022/08/10 08:46:12;;;;;;;6.70;2.88;;;21.90;99.90;;;;;;5057938;28;20048;-58
2022/08/10 08:48:38;;;;;;;7.47;3.05;;;22.00;99.90;;;;;;5059659;28;20049;-58
2022/08/10 08:51:41;;;;;;;8.80;2.42;;;22.00;99.90;;;;;;5057868;28;20060;-58
2022/08/10 08:54:28;;;;;;;7.35;2.60;;;22.00;99.90;;;;;;5058030;28;20122;-58
2022/08/10 08:57:24;;;;;;;6.82;2.40;;;22.10;99.90;;;;;;5059373;28;20053;-58
2022/08/10 09:00:14;;;;;;;6.82;2.55;;;22.20;99.90;;;;;;5057994;28;20467;-58
2022/08/10 09:03:09;;;;;;;7.15;2.90;;;22.20;99.90;;;;;;5058129;28;20409;-60
2022/08/10 09:05:54;;;;;;;8.70;3.08;;;22.30;99.90;;;;;;5059221;28;20052;-58
2022/08/10 09:08:52;;;;;;;8.25;3.30;;;22.40;99.90;;;;;;5058007;28;20057;-59
2022/08/10 09:11:17;;;;;;;8.07;2.78;;;22.30;99.90;;;;;;5057574;28;20556;-59
2022/08/10 09:13:53;;;;;;;6.40;2.72;;;22.50;99.90;;;;;;5059345;28;20041;-58
2022/08/10 09:16:36;;;;;;;6.93;2.83;;;22.50;99.90;;;;;;5057356;28;20438;-58
2022/08/10 09:19:05;;;;;;;6.63;2.72;;;22.50;99.90;;;;;;5059011;28;20052;-58
2022/08/10 09:21:54;;;;;;;6.63;2.67;;;22.60;99.90;;;;;;5057977;28;20051;-58
2022/08/10 09:24:49;;;;;;;5.82;3.13;;;22.70;99.90;;;;;;5057866;28;20059;-59
2022/08/10 09:27:25;;;;;;;6.18;2.50;;;22.80;99.90;;;;;;5057661;28;20135;-58
2022/08/10 09:30:00;;;;;;;7.00;2.63;;;22.80;99.90;;;;;;5051799;28;20075;-57
2022/08/10 09:32:38;;;;;;;8.65;3.17;;;22.80;99.90;;;;;;5038428;28;20639;-58
2022/08/10 09:35:22;;;;;;;6.25;2.50;;;22.80;99.90;;;;;;5039313;28;20041;-58
2022/08/10 09:37:53;;;;;;;7.57;3.30;;;22.90;99.90;;;;;;5041305;28;20080;-58
2022/08/10 09:40:48;;;;;;;7.47;3.05;;;23.00;99.90;;;;;;5058723;28;20041;-58
2022/08/10 09:43:39;;;;;;;6.50;2.83;;;23.10;99.90;;;;;;5057622;28;20124;-57
2022/08/10 09:46:14;;;;;;;6.47;2.65;;;23.20;99.90;;;;;;5057051;28;20045;-58
2022/08/10 09:49:07;;;;;;;6.60;2.70;;;23.20;99.90;;;;;;5058623;28;20052;-58
2022/08/10 09:51:51;;;;;;;6.38;3.05;;;23.30;99.90;;;;;;5059801;28;20045;-57
2022/08/10 09:54:33;;;;;;;5.90;2.40;;;23.40;99.90;;;;;;5061366;28;20052;-57
2022/08/10 09:57:14;;;;;;;;;;;23.50;99.90;;;;;;5051887;28;20041;-58
2022/08/10 09:59:53;;;;;;;6.57;2.90;;;23.50;99.90;;;;;;5046497;28;19967;-57
2022/08/10 10:02:27;;;;;;;6.45;2.72;;;23.60;99.90;;;;;;5041966;28;20038;-58
2022/08/10 10:04:56;;;;;;;8.77;2.92;;;23.50;99.90;;;;;;5042527;28;20064;-58
2022/08/10 10:07:26;;;;;;;7.85;2.40;;;23.60;99.90;;;;;;5040469;28;20063;-59
2022/08/10 10:10:18;;;;;;;9.65;2.53;;;23.70;99.90;;;;;;5042523;28;20033;-58
2022/08/10 10:12:49;;;;;;;;;;;23.80;99.90;;;;;;5040209;28;20064;-58
2022/08/10 10:15:33;;;;;;;7.03;2.83;;;23.90;99.90;;;;;;5041577;28;19983;-58
2022/08/10 10:18:09;;;;;;;6.28;2.63;;;23.90;99.90;;;;;;5042246;28;20045;-58
2022/08/10 10:20:40;;;;;;;5.57;2.40;;;23.90;99.90;;;;;;5040641;28;20116;-58
2022/08/10 10:23:29;;;;;;;5.43;2.35;;;24.00;99.90;;;;;;5041594;28;20063;-58
2022/08/10 10:26:05;;;;;;;6.68;2.53;;;23.90;99.90;;;;;;5041657;28;20037;-56
2022/08/10 10:29:00;;;;;;;6.70;2.40;;;24.00;99.90;;;;;;5040551;28;20053;-58
2022/08/10 10:31:47;;;;;;;7.03;2.70;;;24.00;99.90;;;;;;5054854;28;20484;-59
2022/08/10 10:34:37;;;;;;;5.18;2.50;;;24.10;99.90;;;;;;5050366;28;20061;-58
2022/08/10 10:37:05;;;;;;;7.72;2.40;;;24.20;99.90;;;;;;5049502;28;20094;-55
2022/08/10 10:39:33;;;;;;;5.57;2.80;;;24.20;99.90;;;;;;5061836;28;20045;-59
2022/08/10 10:42:29;;;;;;;5.40;2.47;;;24.30;99.90;;;;;;5058906;28;20053;-59
2022/08/10 10:45:28;;;;;;;6.50;2.83;;;24.40;99.90;;;;;;5049527;28;20063;-59
2022/08/10 10:48:21;;;;;;;5.35;2.15;;;24.40;99.90;;;;;;5061940;28;20048;-57
2022/08/10 10:51:12;;;;;;;5.95;2.28;;;24.50;99.90;;;;;;5060258;28;20048;-57
2022/08/10 10:53:59;;;;;;;6.15;2.25;;;24.60;99.90;;;;;;5061442;28;20041;-58
2022/08/10 10:56:43;;;;;;;9.32;2.85;;;24.70;99.90;;;;;;5061757;28;20063;-58
2022/08/10 10:59:47;;;;;;;5.45;2.22;;;24.60;99.90;;;;;;5058798;28;20485;-58
2022/08/10 11:02:49;;;;;;;4.90;2.17;;;24.80;99.90;;;;;;5039140;28;20172;-58
2022/08/10 11:05:22;;;;;;;5.22;2.00;;;24.80;99.90;;;;;;5061965;28;20207;-59
2022/08/10 11:08:14;;;;;;;5.55;2.28;;;24.90;99.90;;;;;;5059723;28;20041;-59
2022/08/10 11:10:47;;;;;;;6.65;2.15;;;25.00;99.90;;;;;;5060895;28;20037;-59
2022/08/10 11:13:28;;;;;;;11.93;2.25;;;25.00;99.90;;;;;;5060777;28;20168;-57
2022/08/10 11:16:29;;;;;;;6.50;2.15;;;25.00;99.90;;;;;;5059655;28;20558;-58
2022/08/10 11:19:29;;;;;;;7.25;1.80;;;25.20;99.90;;;;;;5051656;28;20056;-59
2022/08/10 11:22:13;;;;;;;6.82;2.40;;;25.20;99.90;;;;;;5060989;28;20055;-59
2022/08/10 11:25:07;;;;;;;5.93;2.25;;;25.10;99.90;;;;;;5059145;28;20053;-58
2022/08/10 11:28:09;;;;;;;6.45;2.13;;;25.20;99.90;;;;;;5060548;28;20087;-59
2022/08/10 11:31:05;;;;;;;4.68;2.05;;;25.20;99.90;;;;;;5048853;28;20053;-58
2022/08/10 11:33:47;;;;;;;6.70;2.03;;;25.20;99.90;;;;;;5039728;28;20050;-59
2022/08/10 11:36:31;;;;;;;;;;;25.30;99.90;;;;;;5040876;28;20046;-59
2022/08/10 11:39:35;;;;;;;6.70;2.05;;;25.30;99.90;;;;;;5055401;28;19920;-58
2022/08/10 11:42:11;;;;;;;5.95;2.10;;;25.40;99.90;;;;;;5059094;28;20106;-58
2022/08/10 11:44:43;;;;;;;7.10;2.15;;;25.40;99.90;;;;;;5060445;28;20489;-58
2022/08/10 11:47:16;;;;;;;5.80;1.90;;;25.50;99.90;;;;;;5059914;28;20052;-58
2022/08/10 11:50:10;;;;;;;7.18;2.22;;;25.50;99.90;;;;;;5059386;28;20075;-57
2022/08/10 11:52:44;;;;;;;4.47;1.50;;;25.60;99.90;;;;;;5056472;28;20198;-58
2022/08/10 11:55:20;;;;;;;4.00;1.60;;;25.70;99.90;;;;;;5059216;28;20052;-57
2022/08/10 11:57:50;;;;;;;5.32;1.70;;;25.70;99.90;;;;;;5059824;28;20056;-58
2022/08/10 12:00:16;;;;;;;4.85;1.58;;;25.60;99.90;;;;;;5060169;28;20037;-57
2022/08/10 12:02:49;;;;;;;4.32;1.50;;;25.60;99.90;;;;;;5059201;28;20059;-57
2022/08/10 12:05:26;;;;;;;5.72;2.00;;;25.70;99.90;;;;;;5059544;28;20535;-58
2022/08/10 12:07:58;;;;;;;5.07;1.77;;;25.90;99.90;;;;;;5058546;28;20041;-58
2022/08/10 12:10:25;;;;;;;5.18;1.73;;;26.00;99.90;;;;;;5059631;28;20048;-58
2022/08/10 12:13:11;;;;;;;3.72;1.45;;;26.00;99.90;;;;;;5057341;28;20049;-58
2022/08/10 12:15:54;;;;;;;3.17;1.30;;;26.00;99.90;;;;;;5058094;28;20057;-58
2022/08/10 12:18:48;;;;;;;3.53;1.50;;;26.10;99.90;;;;;;5060224;28;20041;-58
2022/08/10 12:21:32;;;;;;;4.10;1.52;;;26.20;99.90;;;;;;5036607;28;20061;-58
2022/08/10 12:24:08;;;;;;;5.53;1.45;;;26.10;99.90;;;;;;5058966;28;20040;-58
2022/08/10 12:26:42;;;;;;;3.78;1.40;;;26.20;99.90;;;;;;5059511;28;20051;-58
2022/08/10 12:29:22;;;;;;;4.30;1.20;;;26.30;99.90;;;;;;5057442;28;20901;-58
2022/08/10 12:31:58;;;;;;;6.75;1.60;;;26.30;99.90;;;;;;5039537;28;20064;-58
2022/08/10 12:34:34;;;;;;;4.57;1.30;;;26.30;99.90;;;;;;5039280;28;20049;-58
2022/08/10 12:37:11;;;;;;;4.57;1.45;;;26.40;99.90;;;;;;5038442;28;20060;-58
2022/08/10 12:39:45;;;;;;;3.92;1.48;;;26.40;99.90;;;;;;5039637;28;20033;-58
2022/08/10 12:42:21;;;;;;;3.47;1.48;;;26.30;99.90;;;;;;5038088;28;20037;-58
2022/08/10 12:44:59;;;;;;;3.53;1.45;;;26.40;99.70;;;;;;5039273;28;20041;-58
2022/08/10 12:47:39;;;;;;;3.95;1.70;;;26.60;99.90;;;;;;5039316;28;20041;-57
2022/08/10 12:50:27;;;;;;;3.60;1.33;;;26.60;99.50;;;;;;5037989;28;20041;-58
2022/08/10 12:53:01;;;;;;;4.05;1.55;;;26.60;99.20;;;;;;5039051;28;20153;-58
2022/08/10 12:55:30;;;;;;;4.10;1.63;;;26.70;99.30;;;;;;5038551;28;20660;-57
2022/08/10 12:57:57;;;;;;;3.75;1.42;;;26.70;99.50;;;;;;5043876;28;20041;-58
2022/08/10 13:00:30;;;;;;;3.63;1.40;;;26.60;99.00;;;;;;5058744;28;20060;-58
2022/08/10 13:02:58;;;;;;;4.05;1.50;;;26.70;99.10;;;;;;5057703;28;20117;-58
2022/08/10 13:05:26;;;;;;;5.85;1.75;;;26.60;99.30;;;;;;5078247;28;20045;-58
2022/08/10 13:09:07;;;;;;;6.03;1.92;;;26.60;99.40;;;;;;5077935;28;20043;-57
2022/08/10 13:10:57;;;;;;;5.63;1.80;;;26.70;99.50;;;;;;5078526;28;20053;-58
2022/08/10 13:13:30;;;;;;;5.00;1.60;;;26.70;99.00;;;;;;5079222;28;20481;-59
2022/08/10 13:15:57;;;;;;;4.63;1.63;;;26.60;99.90;;;;;;5077599;28;20044;-58
2022/08/10 13:18:37;;;;;;;4.88;1.30;;;26.60;99.50;;;;;;5079166;28;20044;-58